Hlavní strana
METAR-TAF:

METAR-TAF

Letiště :

Västerås, Švédsko

zeměpisná šířka: 59-35N, zeměpisná délka: 016-38E, výška: 6 m

Aktuální stav počasí

Zpráva byla vytvořena před 21 minutami, v 04:50 UTC
vítr z různých směrů 1 kt
Teplota 7°C
Vlhkost vzduchu 81%
Tlak 1019 hPa
Viditelnost 10 km a více

METAR: ESOW 220450Z AUTO VRB01KT 9999 NCD 07/04 Q1019

Čas: 07:11 (05:11 UTC)

Předpověď počasí

Zpráva byla vytvořena před 17 hodinami a 41 minutami, v 11:30 UTC
Předpověď platná od 20 v 12 UTC do 20 v 20 UTC
Severní vítr 8 kt
Viditelnost 10 km a více
Polojasno ve výšce 3500 ft
Pravděpodobnost 40%
od 20 v 14 UTC do 20 v 18 UTC
Oblačno až skoro zataženo ve výšce 3000 ft, Cumulonimbus.
dešťové přeháňky

TAF: ESOW 201130Z 2012/2020 01008KT 9999 SCT035 PROB40 2014/2018 SHRA BKN030CB

Stav a předpovědi počasí z více než 4 000 letišť (zprávy METAR a TAF).

Červené a žluté tečky na mapě představují dostupné meteorologické stanice.

Když kurzor umístíte na tečku, zobrazí se název stanice.

Pak kliknutím zobrazíte stav a předpověď počasí.

Chcete-li změnit mapu, kliknutím na zelené tlačítko se znaménkem +mapu přiblížíte, kliknutím na zelené tlačítko se znaménkem – mapu oddálíte a kliknutím na zelené šipky přejdete na sousední mapy.


METAR-TAF: